馬祖南竿航空站 - ATIS

METAR RCFG 281100Z 08006KT 9999 FEW020 26/24 Q1009 NOSIG RMK 05009KT/R21 MAX WND 09KT/R03 04010KT/NJL A2982(Y)=

站台狀態:Online
最後更新:2021-09-28 21:30:01